createdAt,value
2023-01-04T00:02:19.524Z,181.07
2023-01-04T00:07:22.389Z,226.37
2023-01-04T00:12:24.958Z,202.70
2023-01-04T00:17:27.470Z,199.60
2023-01-04T00:22:34.521Z,238.23
2023-01-04T00:27:37.205Z,231.73
2023-01-04T00:32:39.808Z,208.53
2023-01-04T00:37:45.728Z,216.80
2023-01-04T00:42:52.641Z,209.23
2023-01-04T00:47:55.266Z,186.77
2023-01-04T00:52:57.772Z,199.03
2023-01-04T00:58:00.345Z,193.00
2023-01-04T01:03:03.544Z,190.43
2023-01-04T01:08:24.817Z,177.87
2023-01-04T01:13:27.389Z,142.40
2023-01-04T01:18:30.416Z,155.57
2023-01-04T01:23:32.978Z,169.37
2023-01-04T01:28:36.559Z,162.77
2023-01-04T01:33:40.669Z,185.03
2023-01-04T01:38:44.377Z,153.57
2023-01-04T01:43:55.361Z,152.23
2023-01-04T01:49:03.607Z,157.67
2023-01-04T01:54:12.249Z,246.90
2023-01-04T01:59:17.070Z,235.30
2023-01-04T02:04:19.896Z,175.67
2023-01-04T02:09:23.735Z,188.00
2023-01-04T02:14:30.113Z,207.53
2023-01-04T02:19:51.586Z,173.53
2023-01-04T02:25:39.541Z,181.17
2023-01-04T02:30:44.865Z,153.93
2023-01-04T02:36:00.088Z,145.10
2023-01-04T02:41:15.825Z,164.23
2023-01-04T02:46:26.890Z,151.73
2023-01-04T02:51:36.147Z,142.40
2023-01-04T02:56:50.383Z,151.07
2023-01-04T03:02:36.202Z,167.97
2023-01-04T03:07:58.612Z,141.40
2023-01-04T03:13:12.033Z,153.17
2023-01-04T03:18:26.246Z,142.10
2023-01-04T03:23:50.867Z,141.40
2023-01-04T03:29:14.435Z,143.47
2023-01-04T03:34:36.435Z,125.53
2023-01-04T03:40:12.074Z,112.67
2023-01-04T03:45:38.662Z,122.43
2023-01-04T03:51:01.029Z,129.47
2023-01-04T03:56:03.996Z,132.27
2023-01-04T04:01:07.346Z,119.67
2023-01-04T04:06:28.327Z,112.27
2023-01-04T04:11:30.984Z,111.63
2023-01-04T04:16:33.596Z,101.63
2023-01-04T04:21:36.526Z,112.03
2023-01-04T04:26:39.115Z,106.00
2023-01-04T04:31:41.694Z,118.23
2023-01-04T04:36:44.438Z,121.67
2023-01-04T04:41:47.233Z,121.63
2023-01-04T04:46:50.369Z,109.23
2023-01-04T04:51:53.255Z,108.00
2023-01-04T04:56:56.010Z,88.17
2023-01-04T05:01:58.770Z,98.60
2023-01-04T05:07:01.516Z,100.97
2023-01-04T05:12:22.516Z,102.83
2023-01-04T05:17:25.055Z,105.83
2023-01-04T05:22:27.529Z,90.50
2023-01-04T05:27:30.194Z,96.53
2023-01-04T05:32:32.802Z,87.50
2023-01-04T05:37:35.373Z,84.10
2023-01-04T05:42:38.129Z,76.70
2023-01-04T05:47:41.162Z,77.97
2023-01-04T05:52:44.329Z,80.27
2023-01-04T05:57:47.189Z,70.27
2023-01-04T06:02:49.858Z,65.53
2023-01-04T06:07:53.154Z,64.80
2023-01-04T06:12:55.688Z,76.03
2023-01-04T06:17:58.221Z,80.50
2023-01-04T06:23:00.896Z,68.23
2023-01-04T06:28:03.500Z,74.70
2023-01-04T06:33:06.080Z,73.07
2023-01-04T06:38:08.614Z,72.40
2023-01-04T06:43:11.149Z,71.60
2023-01-04T06:48:18.184Z,63.77
2023-01-04T06:53:21.591Z,58.40
2023-01-04T06:58:24.196Z,64.53
2023-01-04T07:03:26.870Z,64.50
2023-01-04T07:08:30.321Z,72.83
2023-01-04T07:13:33.022Z,64.93
2023-01-04T07:18:36.599Z,72.73
2023-01-04T07:23:39.182Z,60.30
2023-01-04T07:29:00.257Z,57.63
2023-01-04T07:34:02.853Z,45.57
2023-01-04T07:39:05.844Z,47.80
2023-01-04T07:44:09.788Z,40.93
2023-01-04T07:49:17.343Z,40.50
2023-01-04T07:54:21.050Z,45.03
2023-01-04T07:59:23.787Z,45.57
2023-01-04T08:04:32.706Z,49.57
2023-01-04T08:09:37.399Z,39.80
2023-01-04T08:14:39.928Z,43.70
2023-01-04T08:19:42.432Z,29.30
2023-01-04T08:24:45.846Z,33.90
2023-01-04T08:29:51.156Z,46.77
2023-01-04T08:34:54.342Z,31.23
2023-01-04T08:39:56.885Z,38.30
2023-01-04T08:45:01.786Z,37.83
2023-01-04T08:50:10.413Z,32.77
2023-01-04T08:55:16.796Z,74.70
2023-01-04T09:00:21.899Z,36.93
2023-01-04T09:05:26.106Z,29.67
2023-01-04T09:10:28.686Z,27.13
2023-01-04T09:15:32.532Z,29.60
2023-01-04T09:20:35.141Z,18.50
2023-01-04T09:25:40.181Z,21.53
2023-01-04T09:30:42.736Z,23.43
2023-01-04T09:35:45.384Z,38.60
2023-01-04T09:40:57.242Z,28.10
2023-01-04T09:46:07.941Z,33.10
2023-01-04T09:51:17.986Z,21.30
2023-01-04T09:56:39.329Z,26.43
2023-01-04T10:01:49.833Z,41.63
2023-01-04T10:06:53.126Z,36.93
2023-01-04T10:12:26.329Z,35.17
2023-01-04T10:23:28.261Z,32.70
2023-01-04T10:28:44.462Z,34.40
2023-01-04T10:33:58.099Z,32.60
2023-01-04T10:39:15.206Z,37.40
2023-01-04T10:44:26.796Z,28.53
2023-01-04T10:49:37.242Z,32.43
2023-01-04T10:55:08.938Z,32.73
2023-01-04T11:00:20.782Z,26.70
2023-01-04T11:05:30.808Z,41.20
2023-01-04T11:10:49.130Z,32.53
2023-01-04T11:15:52.832Z,33.90
2023-01-04T11:20:55.708Z,32.17
2023-01-04T11:26:01.772Z,28.47
2023-01-04T11:31:33.228Z,34.87
2023-01-04T11:36:39.007Z,34.57
2023-01-04T11:42:17.050Z,46.40
2023-01-04T11:47:24.334Z,32.10
2023-01-04T11:52:27.790Z,38.63
2023-01-04T11:57:30.441Z,33.50
2023-01-04T12:02:59.974Z,31.70
2023-01-04T12:07:56.059Z,37.73
2023-01-04T12:13:01.869Z,36.83
2023-01-04T12:18:34.569Z,28.17
2023-01-04T12:23:37.027Z,37.43
2023-01-04T12:28:48.504Z,38.17
2023-01-04T12:33:59.227Z,36.47
2023-01-04T12:39:15.236Z,28.43
2023-01-04T12:44:36.532Z,51.10
2023-01-04T12:49:42.214Z,212.87
2023-01-04T12:54:51.199Z,32.13
2023-01-04T12:59:57.810Z,37.00
2023-01-04T13:05:45.422Z,36.83
2023-01-04T13:10:47.317Z,32.90
2023-01-04T13:16:18.338Z,30.30
2023-01-04T13:21:32.048Z,31.90
2023-01-04T13:26:37.076Z,32.70
2023-01-04T13:31:56.753Z,39.83
2023-01-04T13:37:08.539Z,50.37
2023-01-04T13:42:36.498Z,27.77
2023-01-04T13:47:43.695Z,45.23
2023-01-04T13:52:59.935Z,39.13
2023-01-04T13:58:19.182Z,56.33
2023-01-04T14:03:37.109Z,33.67
2023-01-04T14:08:41.678Z,27.00
2023-01-04T14:13:48.389Z,21.10
2023-01-04T14:18:51.057Z,20.43
2023-01-04T14:23:53.600Z,77.00
2023-01-04T14:28:56.343Z,26.63
2023-01-04T14:33:59.182Z,28.90
2023-01-04T14:39:05.412Z,27.53
2023-01-04T14:44:16.782Z,45.70
2023-01-04T14:49:21.993Z,42.93
2023-01-04T14:54:26.753Z,35.60
2023-01-04T14:59:29.294Z,34.77
2023-01-04T15:04:31.840Z,33.83
2023-01-04T15:09:36.790Z,60.17
2023-01-04T15:14:39.381Z,35.17
2023-01-04T15:19:41.869Z,43.40
2023-01-04T15:24:44.432Z,54.67
2023-01-04T15:29:46.963Z,29.83
2023-01-04T15:34:53.248Z,57.87
2023-01-04T15:40:01.908Z,56.30
2023-01-04T15:45:06.282Z,83.30
2023-01-04T15:50:09.057Z,47.77
2023-01-04T15:55:13.396Z,41.77
2023-01-04T16:00:16.815Z,45.13
2023-01-04T16:05:21.008Z,27.20
2023-01-04T16:10:23.952Z,34.20
2023-01-04T16:15:26.676Z,41.07
2023-01-04T16:20:30.593Z,35.23
2023-01-04T16:25:33.050Z,38.10
2023-01-04T16:30:35.773Z,29.60
2023-01-04T16:35:38.291Z,71.13
2023-01-04T16:40:42.681Z,44.97
2023-01-04T16:45:45.195Z,52.60
2023-01-04T16:50:47.709Z,38.03
2023-01-04T16:55:51.638Z,38.97
2023-01-04T17:00:55.083Z,48.87
2023-01-04T17:05:57.700Z,33.97
2023-01-04T17:11:38.555Z,32.13
2023-01-04T17:16:34.462Z,31.00
2023-01-04T17:21:37.672Z,31.63
2023-01-04T17:26:40.956Z,45.87
2023-01-04T17:31:45.084Z,74.17
2023-01-04T17:36:49.757Z,32.90
2023-01-04T17:41:52.242Z,30.97
2023-01-04T17:46:54.766Z,31.97
2023-01-04T17:51:57.411Z,33.63
2023-01-04T17:56:59.925Z,39.50
2023-01-04T18:02:02.632Z,34.20
2023-01-04T18:07:05.215Z,28.90
2023-01-04T18:12:08.239Z,37.70
2023-01-04T18:17:10.944Z,35.13
2023-01-04T18:22:13.533Z,33.83
2023-01-04T18:27:25.685Z,40.33
2023-01-04T18:32:28.875Z,31.83
2023-01-04T18:37:38.200Z,42.37
2023-01-04T18:42:40.771Z,30.20
2023-01-04T18:47:47.619Z,27.20
2023-01-04T18:52:50.178Z,33.97
2023-01-04T18:57:52.680Z,35.93
2023-01-04T19:02:56.206Z,23.90
2023-01-04T19:07:58.736Z,22.83
2023-01-04T19:13:01.755Z,22.67
2023-01-04T19:18:04.359Z,24.90
2023-01-04T19:23:08.483Z,21.87
2023-01-04T19:28:12.446Z,23.37
2023-01-04T19:33:15.075Z,22.47
2023-01-04T19:38:17.573Z,24.83
2023-01-04T19:43:20.132Z,39.10
2023-01-04T19:48:23.886Z,27.63
2023-01-04T19:53:26.448Z,21.33
2023-01-04T19:58:28.982Z,21.10
2023-01-04T20:03:31.562Z,26.03
2023-01-04T20:08:34.352Z,21.90
2023-01-04T20:13:37.717Z,22.70
2023-01-04T20:18:40.272Z,20.43
2023-01-04T20:23:43.761Z,19.67
2023-01-04T20:28:46.487Z,20.77
2023-01-04T20:33:49.168Z,20.33
2023-01-04T20:38:51.797Z,20.93
2023-01-04T20:43:54.310Z,17.40
2023-01-04T20:48:56.860Z,16.00
2023-01-04T20:53:59.919Z,11.93
2023-01-04T20:59:02.454Z,13.40
2023-01-04T21:04:05.247Z,10.80
2023-01-04T21:09:08.201Z,14.30
2023-01-04T21:14:12.583Z,13.13
2023-01-04T21:19:15.083Z,8.80
2023-01-04T21:24:17.595Z,7.30
2023-01-04T21:29:20.192Z,8.90
2023-01-04T21:34:23.228Z,12.67
2023-01-04T21:39:25.754Z,10.33
2023-01-04T21:44:28.480Z,6.43
2023-01-04T21:49:30.975Z,6.83
2023-01-04T21:54:33.404Z,8.10
2023-01-04T21:59:36.343Z,6.13
2023-01-04T22:04:38.828Z,7.43
2023-01-04T22:09:41.492Z,7.80
2023-01-04T22:14:44.081Z,6.23
2023-01-04T22:19:46.839Z,7.50
2023-01-04T22:24:49.261Z,7.10
2023-01-04T22:29:51.613Z,4.13
2023-01-04T22:34:54.054Z,6.03
2023-01-04T22:39:56.437Z,4.20
2023-01-04T22:44:58.879Z,4.47
2023-01-04T22:50:01.715Z,5.73
2023-01-04T22:55:04.555Z,5.63
2023-01-04T23:00:07.915Z,7.67
2023-01-04T23:05:11.684Z,5.03
2023-01-04T23:10:14.227Z,6.87
2023-01-04T23:15:17.813Z,5.07
2023-01-04T23:20:20.683Z,7.43
2023-01-04T23:25:23.440Z,6.63
2023-01-04T23:30:27.728Z,8.93
2023-01-04T23:35:30.255Z,5.57
2023-01-04T23:40:32.824Z,6.37
2023-01-04T23:45:38.574Z,6.00
2023-01-04T23:50:41.065Z,6.90
2023-01-04T23:55:43.547Z,6.50
